sensor_id;sensor_type;location;lat;lon;timestamp;temperature;humidity
41922;DHT22;27609;51.002;5.354;2024-01-16T00:01:44;1.60;99.90
41922;DHT22;27609;51.002;5.354;2024-01-16T00:04:10;1.70;99.90
41922;DHT22;27609;51.002;5.354;2024-01-16T00:06:42;1.70;99.90
41922;DHT22;27609;51.002;5.354;2024-01-16T00:09:08;1.60;99.90
41922;DHT22;27609;51.002;5.354;2024-01-16T00:11:40;1.60;99.90
41922;DHT22;27609;51.002;5.354;2024-01-16T00:14:06;1.60;99.90
41922;DHT22;27609;51.002;5.354;2024-01-16T00:16:32;1.50;99.90
41922;DHT22;27609;51.002;5.354;2024-01-16T00:18:58;2.60;99.90
41922;DHT22;27609;51.002;5.354;2024-01-16T00:21:24;1.60;99.90
41922;DHT22;27609;51.002;5.354;2024-01-16T00:23:49;2.20;99.90
41922;DHT22;27609;51.002;5.354;2024-01-16T00:26:24;2.20;99.90
41922;DHT22;27609;51.002;5.354;2024-01-16T00:28:50;1.80;99.90
41922;DHT22;27609;51.002;5.354;2024-01-16T00:31:16;1.80;99.90
41922;DHT22;27609;51.002;5.354;2024-01-16T00:33:41;1.90;99.90
41922;DHT22;27609;51.002;5.354;2024-01-16T00:36:08;1.90;99.90
41922;DHT22;27609;51.002;5.354;2024-01-16T00:38:34;2.00;99.90
41922;DHT22;27609;51.002;5.354;2024-01-16T00:41:00;2.00;99.90
41922;DHT22;27609;51.002;5.354;2024-01-16T00:43:26;1.90;99.90
41922;DHT22;27609;51.002;5.354;2024-01-16T00:45:52;1.90;99.90
41922;DHT22;27609;51.002;5.354;2024-01-16T00:48:18;1.90;99.90
41922;DHT22;27609;51.002;5.354;2024-01-16T00:50:46;2.10;99.90
41922;DHT22;27609;51.002;5.354;2024-01-16T00:53:14;1.90;99.90
41922;DHT22;27609;51.002;5.354;2024-01-16T00:55:39;1.80;99.90
41922;DHT22;27609;51.002;5.354;2024-01-16T00:58:05;1.80;99.90
41922;DHT22;27609;51.002;5.354;2024-01-16T01:00:31;1.70;99.90
41922;DHT22;27609;51.002;5.354;2024-01-16T01:02:57;1.70;99.90
41922;DHT22;27609;51.002;5.354;2024-01-16T01:05:24;1.70;99.90
41922;DHT22;27609;51.002;5.354;2024-01-16T01:07:57;1.70;99.90
41922;DHT22;27609;51.002;5.354;2024-01-16T01:10:23;1.70;99.90
41922;DHT22;27609;51.002;5.354;2024-01-16T01:12:49;1.80;99.90
41922;DHT22;27609;51.002;5.354;2024-01-16T01:15:15;1.80;99.90
41922;DHT22;27609;51.002;5.354;2024-01-16T01:17:41;1.80;99.90
41922;DHT22;27609;51.002;5.354;2024-01-16T01:20:08;1.90;99.90
41922;DHT22;27609;51.002;5.354;2024-01-16T01:22:35;1.90;99.90
41922;DHT22;27609;51.002;5.354;2024-01-16T01:25:00;2.00;99.90
41922;DHT22;27609;51.002;5.354;2024-01-16T01:27:26;2.00;99.90
41922;DHT22;27609;51.002;5.354;2024-01-16T01:29:52;2.10;99.90
41922;DHT22;27609;51.002;5.354;2024-01-16T01:32:18;2.20;99.90
41922;DHT22;27609;51.002;5.354;2024-01-16T01:34:44;2.30;99.90
41922;DHT22;27609;51.002;5.354;2024-01-16T01:37:09;2.30;99.90
41922;DHT22;27609;51.002;5.354;2024-01-16T01:39:35;2.40;99.90
41922;DHT22;27609;51.002;5.354;2024-01-16T01:42:01;2.30;99.90
41922;DHT22;27609;51.002;5.354;2024-01-16T01:44:27;3.10;99.90
41922;DHT22;27609;51.002;5.354;2024-01-16T01:46:56;2.30;99.90
41922;DHT22;27609;51.002;5.354;2024-01-16T01:49:22;2.20;99.90
41922;DHT22;27609;51.002;5.354;2024-01-16T01:51:49;1.90;99.90
41922;DHT22;27609;51.002;5.354;2024-01-16T01:54:15;2.40;99.90
41922;DHT22;27609;51.002;5.354;2024-01-16T01:56:46;2.20;99.90
41922;DHT22;27609;51.002;5.354;2024-01-16T01:59:14;2.10;99.90
41922;DHT22;27609;51.002;5.354;2024-01-16T02:01:40;2.10;99.90
41922;DHT22;27609;51.002;5.354;2024-01-16T02:04:06;2.00;99.90
41922;DHT22;27609;51.002;5.354;2024-01-16T02:06:34;2.00;99.90
41922;DHT22;27609;51.002;5.354;2024-01-16T02:09:00;1.90;99.90
41922;DHT22;27609;51.002;5.354;2024-01-16T02:11:26;1.90;99.90
41922;DHT22;27609;51.002;5.354;2024-01-16T02:13:52;1.70;99.90
41922;DHT22;27609;51.002;5.354;2024-01-16T02:16:22;1.60;99.90
41922;DHT22;27609;51.002;5.354;2024-01-16T02:18:48;1.70;99.90
41922;DHT22;27609;51.002;5.354;2024-01-16T02:21:20;1.70;99.90
41922;DHT22;27609;51.002;5.354;2024-01-16T02:23:46;1.60;99.90
41922;DHT22;27609;51.002;5.354;2024-01-16T02:26:17;1.60;99.90
41922;DHT22;27609;51.002;5.354;2024-01-16T02:28:43;1.50;99.90
41922;DHT22;27609;51.002;5.354;2024-01-16T02:31:08;1.60;99.90
41922;DHT22;27609;51.002;5.354;2024-01-16T02:33:34;1.50;99.90
41922;DHT22;27609;51.002;5.354;2024-01-16T02:36:00;1.60;99.90
41922;DHT22;27609;51.002;5.354;2024-01-16T02:38:26;1.00;99.90
41922;DHT22;27609;51.002;5.354;2024-01-16T02:40:51;1.60;99.90
41922;DHT22;27609;51.002;5.354;2024-01-16T02:43:17;1.60;99.90
41922;DHT22;27609;51.002;5.354;2024-01-16T02:45:43;1.50;99.90
41922;DHT22;27609;51.002;5.354;2024-01-16T02:48:09;1.10;99.90
41922;DHT22;27609;51.002;5.354;2024-01-16T02:50:35;1.50;99.90
41922;DHT22;27609;51.002;5.354;2024-01-16T02:53:00;1.50;99.90
41922;DHT22;27609;51.002;5.354;2024-01-16T02:55:26;1.60;99.90
41922;DHT22;27609;51.002;5.354;2024-01-16T02:57:52;1.50;99.90
41922;DHT22;27609;51.002;5.354;2024-01-16T03:00:18;1.40;99.90
41922;DHT22;27609;51.002;5.354;2024-01-16T03:02:44;1.40;99.90
41922;DHT22;27609;51.002;5.354;2024-01-16T03:05:10;1.60;99.90
41922;DHT22;27609;51.002;5.354;2024-01-16T03:07:36;1.60;99.90
41922;DHT22;27609;51.002;5.354;2024-01-16T03:10:02;1.50;99.90
41922;DHT22;27609;51.002;5.354;2024-01-16T03:12:28;1.50;99.90
41922;DHT22;27609;51.002;5.354;2024-01-16T03:14:54;1.60;99.90
41922;DHT22;27609;51.002;5.354;2024-01-16T03:17:20;1.50;99.90
41922;DHT22;27609;51.002;5.354;2024-01-16T03:19:46;1.50;99.90
41922;DHT22;27609;51.002;5.354;2024-01-16T03:22:12;1.60;99.90
41922;DHT22;27609;51.002;5.354;2024-01-16T03:24:38;1.50;99.90
41922;DHT22;27609;51.002;5.354;2024-01-16T03:27:04;1.30;99.90
41922;DHT22;27609;51.002;5.354;2024-01-16T03:29:30;1.30;99.90
41922;DHT22;27609;51.002;5.354;2024-01-16T03:31:56;1.20;99.90
41922;DHT22;27609;51.002;5.354;2024-01-16T03:34:23;1.20;99.90
41922;DHT22;27609;51.002;5.354;2024-01-16T03:36:48;1.20;99.90
41922;DHT22;27609;51.002;5.354;2024-01-16T03:39:14;1.10;99.90
41922;DHT22;27609;51.002;5.354;2024-01-16T03:41:40;1.10;99.90
41922;DHT22;27609;51.002;5.354;2024-01-16T03:44:06;1.10;99.90
41922;DHT22;27609;51.002;5.354;2024-01-16T03:46:31;1.10;99.90
41922;DHT22;27609;51.002;5.354;2024-01-16T03:48:57;1.10;99.90
41922;DHT22;27609;51.002;5.354;2024-01-16T03:51:23;1.20;99.90
41922;DHT22;27609;51.002;5.354;2024-01-16T03:53:49;1.00;99.90
41922;DHT22;27609;51.002;5.354;2024-01-16T03:56:16;0.10;99.90
41922;DHT22;27609;51.002;5.354;2024-01-16T03:58:41;0.90;99.90
41922;DHT22;27609;51.002;5.354;2024-01-16T04:01:08;0.80;99.90
41922;DHT22;27609;51.002;5.354;2024-01-16T04:03:34;1.90;99.90
41922;DHT22;27609;51.002;5.354;2024-01-16T04:06:04;0.80;99.90
41922;DHT22;27609;51.002;5.354;2024-01-16T04:08:39;0.80;99.90
41922;DHT22;27609;51.002;5.354;2024-01-16T04:11:05;0.70;99.90
41922;DHT22;27609;51.002;5.354;2024-01-16T04:13:36;0.50;99.90
41922;DHT22;27609;51.002;5.354;2024-01-16T04:16:02;0.50;99.90
41922;DHT22;27609;51.002;5.354;2024-01-16T04:18:28;0.60;99.90
41922;DHT22;27609;51.002;5.354;2024-01-16T04:20:53;0.50;99.90
41922;DHT22;27609;51.002;5.354;2024-01-16T04:23:19;1.60;99.90
41922;DHT22;27609;51.002;5.354;2024-01-16T04:25:45;0.30;99.90
41922;DHT22;27609;51.002;5.354;2024-01-16T04:28:11;0.30;99.90
41922;DHT22;27609;51.002;5.354;2024-01-16T04:30:37;1.40;99.90
41922;DHT22;27609;51.002;5.354;2024-01-16T04:33:03;0.10;99.90
41922;DHT22;27609;51.002;5.354;2024-01-16T04:35:29;0.10;99.90
41922;DHT22;27609;51.002;5.354;2024-01-16T04:37:54;0.10;99.90
41922;DHT22;27609;51.002;5.354;2024-01-16T04:40:20;0.00;99.90
41922;DHT22;27609;51.002;5.354;2024-01-16T04:42:47;0.00;99.90
41922;DHT22;27609;51.002;5.354;2024-01-16T04:45:13;0.10;99.90
41922;DHT22;27609;51.002;5.354;2024-01-16T04:47:39;0.00;99.90
41922;DHT22;27609;51.002;5.354;2024-01-16T04:50:04;-0.10;99.90
41922;DHT22;27609;51.002;5.354;2024-01-16T04:52:30;-0.10;99.90
41922;DHT22;27609;51.002;5.354;2024-01-16T04:54:56;0.40;99.90
41922;DHT22;27609;51.002;5.354;2024-01-16T04:57:22;0.10;99.90
41922;DHT22;27609;51.002;5.354;2024-01-16T04:59:48;1.00;99.90
41922;DHT22;27609;51.002;5.354;2024-01-16T05:02:14;0.20;99.90
41922;DHT22;27609;51.002;5.354;2024-01-16T05:04:42;0.10;99.90
41922;DHT22;27609;51.002;5.354;2024-01-16T05:07:08;0.10;99.90
41922;DHT22;27609;51.002;5.354;2024-01-16T05:09:34;0.10;99.90
41922;DHT22;27609;51.002;5.354;2024-01-16T05:12:00;0.20;99.90
41922;DHT22;27609;51.002;5.354;2024-01-16T05:14:26;0.20;99.90
41922;DHT22;27609;51.002;5.354;2024-01-16T05:16:52;0.90;99.90
41922;DHT22;27609;51.002;5.354;2024-01-16T05:19:18;0.00;99.90
41922;DHT22;27609;51.002;5.354;2024-01-16T05:21:44;0.10;99.90
41922;DHT22;27609;51.002;5.354;2024-01-16T05:24:11;0.00;99.90
41922;DHT22;27609;51.002;5.354;2024-01-16T05:26:36;-0.10;99.90
41922;DHT22;27609;51.002;5.354;2024-01-16T05:29:02;-0.10;99.90
41922;DHT22;27609;51.002;5.354;2024-01-16T05:31:28;-0.10;99.90
41922;DHT22;27609;51.002;5.354;2024-01-16T05:33:54;-1.30;99.90
41922;DHT22;27609;51.002;5.354;2024-01-16T05:36:19;-0.10;99.90
41922;DHT22;27609;51.002;5.354;2024-01-16T05:38:46;-0.20;99.90
41922;DHT22;27609;51.002;5.354;2024-01-16T05:41:12;-0.20;99.90
41922;DHT22;27609;51.002;5.354;2024-01-16T05:43:38;-0.20;99.90
41922;DHT22;27609;51.002;5.354;2024-01-16T05:46:04;0.60;99.90
41922;DHT22;27609;51.002;5.354;2024-01-16T05:48:30;-0.10;99.90
41922;DHT22;27609;51.002;5.354;2024-01-16T05:50:56;-0.10;99.90
41922;DHT22;27609;51.002;5.354;2024-01-16T05:53:22;-0.20;99.90
41922;DHT22;27609;51.002;5.354;2024-01-16T05:55:47;-0.20;99.90
41922;DHT22;27609;51.002;5.354;2024-01-16T05:58:13;-0.30;99.90
41922;DHT22;27609;51.002;5.354;2024-01-16T06:00:39;0.40;99.90
41922;DHT22;27609;51.002;5.354;2024-01-16T06:03:06;-0.40;99.90
41922;DHT22;27609;51.002;5.354;2024-01-16T06:05:32;-0.40;99.90
41922;DHT22;27609;51.002;5.354;2024-01-16T06:07:57;-0.10;99.90
41922;DHT22;27609;51.002;5.354;2024-01-16T06:10:23;-0.50;99.90
41922;DHT22;27609;51.002;5.354;2024-01-16T06:12:49;0.20;99.90
41922;DHT22;27609;51.002;5.354;2024-01-16T06:15:15;-0.60;99.90
41922;DHT22;27609;51.002;5.354;2024-01-16T06:17:40;-0.30;99.90
41922;DHT22;27609;51.002;5.354;2024-01-16T06:20:06;-0.60;99.90
41922;DHT22;27609;51.002;5.354;2024-01-16T06:22:32;-0.60;99.90
41922;DHT22;27609;51.002;5.354;2024-01-16T06:24:58;-1.00;99.90
41922;DHT22;27609;51.002;5.354;2024-01-16T06:27:24;-0.10;99.90
41922;DHT22;27609;51.002;5.354;2024-01-16T06:29:50;-0.80;99.90
41922;DHT22;27609;51.002;5.354;2024-01-16T06:32:16;-0.80;99.90
41922;DHT22;27609;51.002;5.354;2024-01-16T06:34:43;-0.80;99.90
41922;DHT22;27609;51.002;5.354;2024-01-16T06:37:08;-1.80;99.90
41922;DHT22;27609;51.002;5.354;2024-01-16T06:39:34;-0.30;99.90
41922;DHT22;27609;51.002;5.354;2024-01-16T06:42:00;-0.30;99.90
41922;DHT22;27609;51.002;5.354;2024-01-16T06:44:26;-1.00;99.90
41922;DHT22;27609;51.002;5.354;2024-01-16T06:46:52;-0.10;99.90
41922;DHT22;27609;51.002;5.354;2024-01-16T06:49:18;-0.90;99.90
41922;DHT22;27609;51.002;5.354;2024-01-16T06:51:43;-0.80;99.90
41922;DHT22;27609;51.002;5.354;2024-01-16T06:54:09;-0.80;99.90
41922;DHT22;27609;51.002;5.354;2024-01-16T06:56:35;-0.90;99.90
41922;DHT22;27609;51.002;5.354;2024-01-16T06:59:01;-0.90;99.90
41922;DHT22;27609;51.002;5.354;2024-01-16T07:01:27;-0.90;99.90
41922;DHT22;27609;51.002;5.354;2024-01-16T07:03:52;-1.10;99.90
41922;DHT22;27609;51.002;5.354;2024-01-16T07:06:18;-0.70;99.90
41922;DHT22;27609;51.002;5.354;2024-01-16T07:08:44;-1.00;99.90
41922;DHT22;27609;51.002;5.354;2024-01-16T07:11:10;-1.00;99.90
41922;DHT22;27609;51.002;5.354;2024-01-16T07:13:39;-0.90;99.90
41922;DHT22;27609;51.002;5.354;2024-01-16T07:16:06;-0.90;99.90
41922;DHT22;27609;51.002;5.354;2024-01-16T07:18:34;-0.90;99.90
41922;DHT22;27609;51.002;5.354;2024-01-16T07:21:00;-0.50;99.90
41922;DHT22;27609;51.002;5.354;2024-01-16T07:23:25;-0.80;99.90
41922;DHT22;27609;51.002;5.354;2024-01-16T07:25:51;-0.80;99.90
41922;DHT22;27609;51.002;5.354;2024-01-16T07:28:17;-1.10;99.90
41922;DHT22;27609;51.002;5.354;2024-01-16T07:30:43;-0.50;99.90
41922;DHT22;27609;51.002;5.354;2024-01-16T07:33:08;-0.80;99.90
41922;DHT22;27609;51.002;5.354;2024-01-16T07:35:34;-0.10;99.90
41922;DHT22;27609;51.002;5.354;2024-01-16T07:38:00;-0.90;99.90
41922;DHT22;27609;51.002;5.354;2024-01-16T07:40:26;-1.00;99.90
41922;DHT22;27609;51.002;5.354;2024-01-16T07:42:51;0.20;99.90
41922;DHT22;27609;51.002;5.354;2024-01-16T07:45:17;-0.80;99.90
41922;DHT22;27609;51.002;5.354;2024-01-16T07:47:43;-0.90;99.90
41922;DHT22;27609;51.002;5.354;2024-01-16T07:50:09;-0.90;99.90
41922;DHT22;27609;51.002;5.354;2024-01-16T07:52:35;-0.90;99.90
41922;DHT22;27609;51.002;5.354;2024-01-16T07:55:01;-0.80;99.90
41922;DHT22;27609;51.002;5.354;2024-01-16T07:57:28;-0.80;99.90
41922;DHT22;27609;51.002;5.354;2024-01-16T07:59:54;-0.70;99.90
41922;DHT22;27609;51.002;5.354;2024-01-16T08:02:20;-0.80;99.90
41922;DHT22;27609;51.002;5.354;2024-01-16T08:04:45;-0.80;99.90
41922;DHT22;27609;51.002;5.354;2024-01-16T08:07:11;-0.70;99.90
41922;DHT22;27609;51.002;5.354;2024-01-16T08:09:37;-0.60;99.90
41922;DHT22;27609;51.002;5.354;2024-01-16T08:12:03;-0.50;99.90
41922;DHT22;27609;51.002;5.354;2024-01-16T08:14:29;-0.30;99.90
41922;DHT22;27609;51.002;5.354;2024-01-16T08:16:55;-0.10;99.90
41922;DHT22;27609;51.002;5.354;2024-01-16T08:19:20;-0.30;99.90
41922;DHT22;27609;51.002;5.354;2024-01-16T08:21:46;0.00;99.90
41922;DHT22;27609;51.002;5.354;2024-01-16T08:24:12;0.10;99.90
41922;DHT22;27609;51.002;5.354;2024-01-16T08:26:37;0.10;99.90
41922;DHT22;27609;51.002;5.354;2024-01-16T08:29:03;0.20;99.90
41922;DHT22;27609;51.002;5.354;2024-01-16T08:31:30;0.10;99.90
41922;DHT22;27609;51.002;5.354;2024-01-16T08:33:56;0.10;99.90
41922;DHT22;27609;51.002;5.354;2024-01-16T08:36:23;0.20;99.90
41922;DHT22;27609;51.002;5.354;2024-01-16T08:38:48;0.00;99.90
41922;DHT22;27609;51.002;5.354;2024-01-16T08:41:15;0.70;99.90
41922;DHT22;27609;51.002;5.354;2024-01-16T08:43:40;0.20;99.90
41922;DHT22;27609;51.002;5.354;2024-01-16T08:46:06;1.40;99.90
41922;DHT22;27609;51.002;5.354;2024-01-16T08:48:32;0.40;99.90
41922;DHT22;27609;51.002;5.354;2024-01-16T08:50:58;1.20;99.90
41922;DHT22;27609;51.002;5.354;2024-01-16T08:53:24;0.30;99.90
41922;DHT22;27609;51.002;5.354;2024-01-16T08:55:50;0.30;99.90
41922;DHT22;27609;51.002;5.354;2024-01-16T08:58:16;0.30;99.90
41922;DHT22;27609;51.002;5.354;2024-01-16T09:00:41;0.30;99.90
41922;DHT22;27609;51.002;5.354;2024-01-16T09:03:07;0.20;99.90
41922;DHT22;27609;51.002;5.354;2024-01-16T09:05:33;0.40;99.90
41922;DHT22;27609;51.002;5.354;2024-01-16T09:08:01;-0.30;99.90
41922;DHT22;27609;51.002;5.354;2024-01-16T09:10:28;0.50;99.90
41922;DHT22;27609;51.002;5.354;2024-01-16T09:12:55;0.50;99.90
41922;DHT22;27609;51.002;5.354;2024-01-16T09:15:20;0.60;99.90
41922;DHT22;27609;51.002;5.354;2024-01-16T09:17:46;0.50;99.90
41922;DHT22;27609;51.002;5.354;2024-01-16T09:20:12;0.40;99.90
41922;DHT22;27609;51.002;5.354;2024-01-16T09:22:38;0.50;99.90
41922;DHT22;27609;51.002;5.354;2024-01-16T09:25:04;0.40;99.90
41922;DHT22;27609;51.002;5.354;2024-01-16T09:27:30;0.40;99.90
41922;DHT22;27609;51.002;5.354;2024-01-16T09:29:56;0.50;99.90
41922;DHT22;27609;51.002;5.354;2024-01-16T09:32:22;0.40;99.90
41922;DHT22;27609;51.002;5.354;2024-01-16T09:34:48;0.80;99.90
41922;DHT22;27609;51.002;5.354;2024-01-16T09:37:14;0.60;99.90
41922;DHT22;27609;51.002;5.354;2024-01-16T09:39:41;0.70;99.90
41922;DHT22;27609;51.002;5.354;2024-01-16T09:42:06;0.80;99.90
41922;DHT22;27609;51.002;5.354;2024-01-16T09:44:32;1.10;99.90
41922;DHT22;27609;51.002;5.354;2024-01-16T09:47:01;1.60;99.90
41922;DHT22;27609;51.002;5.354;2024-01-16T09:49:29;2.00;99.90
41922;DHT22;27609;51.002;5.354;2024-01-16T09:51:55;2.60;99.90
41922;DHT22;27609;51.002;5.354;2024-01-16T09:54:24;3.10;99.90
41922;DHT22;27609;51.002;5.354;2024-01-16T09:56:53;3.50;99.90
41922;DHT22;27609;51.002;5.354;2024-01-16T09:59:23;3.70;99.90
41922;DHT22;27609;51.002;5.354;2024-01-16T10:01:52;4.80;99.90
41922;DHT22;27609;51.002;5.354;2024-01-16T10:04:19;5.90;99.90
41922;DHT22;27609;51.002;5.354;2024-01-16T10:06:46;6.00;99.90
41922;DHT22;27609;51.002;5.354;2024-01-16T10:09:12;6.90;99.90
41922;DHT22;27609;51.002;5.354;2024-01-16T10:11:38;7.40;99.90
41922;DHT22;27609;51.002;5.354;2024-01-16T10:14:05;7.90;99.90
41922;DHT22;27609;51.002;5.354;2024-01-16T10:16:56;8.60;99.90
41922;DHT22;27609;51.002;5.354;2024-01-16T10:19:23;9.10;99.90
41922;DHT22;27609;51.002;5.354;2024-01-16T10:21:50;8.60;99.90
41922;DHT22;27609;51.002;5.354;2024-01-16T10:24:16;9.50;99.90
41922;DHT22;27609;51.002;5.354;2024-01-16T10:26:42;8.50;99.90
41922;DHT22;27609;51.002;5.354;2024-01-16T10:29:07;8.30;99.90
41922;DHT22;27609;51.002;5.354;2024-01-16T10:31:34;8.20;99.90
41922;DHT22;27609;51.002;5.354;2024-01-16T10:34:00;8.40;99.90
41922;DHT22;27609;51.002;5.354;2024-01-16T10:36:26;9.10;99.90
41922;DHT22;27609;51.002;5.354;2024-01-16T10:38:52;9.90;99.90
41922;DHT22;27609;51.002;5.354;2024-01-16T10:41:27;9.80;99.90
41922;DHT22;27609;51.002;5.354;2024-01-16T10:44:07;10.40;99.90
41922;DHT22;27609;51.002;5.354;2024-01-16T10:46:33;10.60;98.70
41922;DHT22;27609;51.002;5.354;2024-01-16T10:49:00;10.00;98.40
41922;DHT22;27609;51.002;5.354;2024-01-16T10:51:27;10.10;98.60
41922;DHT22;27609;51.002;5.354;2024-01-16T10:53:59;10.60;98.80
41922;DHT22;27609;51.002;5.354;2024-01-16T10:56:27;11.30;96.70
41922;DHT22;27609;51.002;5.354;2024-01-16T11:01:28;10.70;98.70
41922;DHT22;27609;51.002;5.354;2024-01-16T11:03:55;12.00;96.40
41922;DHT22;27609;51.002;5.354;2024-01-16T11:06:23;11.50;97.00
41922;DHT22;27609;51.002;5.354;2024-01-16T11:08:49;12.10;95.60
41922;DHT22;27609;51.002;5.354;2024-01-16T11:11:15;12.50;93.90
41922;DHT22;27609;51.002;5.354;2024-01-16T11:13:41;11.70;93.90
41922;DHT22;27609;51.002;5.354;2024-01-16T11:16:13;10.10;97.20
41922;DHT22;27609;51.002;5.354;2024-01-16T11:18:39;10.30;96.10
41922;DHT22;27609;51.002;5.354;2024-01-16T11:21:10;10.80;95.70
41922;DHT22;27609;51.002;5.354;2024-01-16T11:23:37;12.10;94.40
41922;DHT22;27609;51.002;5.354;2024-01-16T11:26:25;11.50;94.20
41922;DHT22;27609;51.002;5.354;2024-01-16T11:28:53;11.80;95.30
41922;DHT22;27609;51.002;5.354;2024-01-16T11:31:33;11.90;93.60
41922;DHT22;27609;51.002;5.354;2024-01-16T11:34:00;12.30;92.20
41922;DHT22;27609;51.002;5.354;2024-01-16T11:36:51;12.60;91.80
41922;DHT22;27609;51.002;5.354;2024-01-16T11:39:24;11.80;91.70
41922;DHT22;27609;51.002;5.354;2024-01-16T11:42:00;12.00;91.80
41922;DHT22;27609;51.002;5.354;2024-01-16T11:47:07;11.80;91.40
41922;DHT22;27609;51.002;5.354;2024-01-16T11:49:37;11.70;91.90
41922;DHT22;27609;51.002;5.354;2024-01-16T11:52:02;11.00;92.20
41922;DHT22;27609;51.002;5.354;2024-01-16T11:54:28;11.70;91.80
41922;DHT22;27609;51.002;5.354;2024-01-16T12:02:21;12.60;90.10
41922;DHT22;27609;51.002;5.354;2024-01-16T12:04:58;12.90;90.80
41922;DHT22;27609;51.002;5.354;2024-01-16T12:07:29;13.40;88.60
41922;DHT22;27609;51.002;5.354;2024-01-16T12:09:59;13.70;86.90
41922;DHT22;27609;51.002;5.354;2024-01-16T12:12:26;13.30;87.70
41922;DHT22;27609;51.002;5.354;2024-01-16T12:14:52;13.50;86.70
41922;DHT22;27609;51.002;5.354;2024-01-16T12:17:20;13.10;86.10
41922;DHT22;27609;51.002;5.354;2024-01-16T12:19:46;13.50;85.10
41922;DHT22;27609;51.002;5.354;2024-01-16T12:22:16;13.00;87.30
41922;DHT22;27609;51.002;5.354;2024-01-16T12:24:46;12.80;87.90
41922;DHT22;27609;51.002;5.354;2024-01-16T12:27:13;12.10;87.90
41922;DHT22;27609;51.002;5.354;2024-01-16T12:29:39;11.70;91.10
41922;DHT22;27609;51.002;5.354;2024-01-16T12:32:10;12.40;88.00
41922;DHT22;27609;51.002;5.354;2024-01-16T12:34:43;12.90;87.10
41922;DHT22;27609;51.002;5.354;2024-01-16T12:37:13;13.30;85.30
41922;DHT22;27609;51.002;5.354;2024-01-16T12:39:40;13.10;83.70
41922;DHT22;27609;51.002;5.354;2024-01-16T12:42:10;13.10;84.70
41922;DHT22;27609;51.002;5.354;2024-01-16T12:44:37;12.50;89.30
41922;DHT22;27609;51.002;5.354;2024-01-16T12:47:03;12.20;90.10
41922;DHT22;27609;51.002;5.354;2024-01-16T12:49:28;13.80;86.30
41922;DHT22;27609;51.002;5.354;2024-01-16T12:52:20;13.90;82.70
41922;DHT22;27609;51.002;5.354;2024-01-16T12:54:47;13.90;81.90
41922;DHT22;27609;51.002;5.354;2024-01-16T12:57:18;13.50;82.50
41922;DHT22;27609;51.002;5.354;2024-01-16T12:59:46;12.90;87.20
41922;DHT22;27609;51.002;5.354;2024-01-16T13:02:20;12.40;87.50
41922;DHT22;27609;51.002;5.354;2024-01-16T13:04:47;12.20;86.30
41922;DHT22;27609;51.002;5.354;2024-01-16T13:07:16;11.90;85.20
41922;DHT22;27609;51.002;5.354;2024-01-16T13:09:43;11.10;87.60
41922;DHT22;27609;51.002;5.354;2024-01-16T13:12:09;11.30;85.90
41922;DHT22;27609;51.002;5.354;2024-01-16T13:14:35;11.40;87.70
41922;DHT22;27609;51.002;5.354;2024-01-16T13:17:01;11.20;87.90
41922;DHT22;27609;51.002;5.354;2024-01-16T13:19:28;10.40;88.80
41922;DHT22;27609;51.002;5.354;2024-01-16T13:21:58;10.40;90.30
41922;DHT22;27609;51.002;5.354;2024-01-16T13:24:24;11.00;88.90
41922;DHT22;27609;51.002;5.354;2024-01-16T13:26:50;10.70;89.60
41922;DHT22;27609;51.002;5.354;2024-01-16T13:29:16;11.00;88.00
41922;DHT22;27609;51.002;5.354;2024-01-16T13:31:42;10.80;87.90
41922;DHT22;27609;51.002;5.354;2024-01-16T13:34:08;10.80;90.60
41922;DHT22;27609;51.002;5.354;2024-01-16T13:36:34;11.00;90.30
41922;DHT22;27609;51.002;5.354;2024-01-16T13:39:00;11.40;89.30
41922;DHT22;27609;51.002;5.354;2024-01-16T13:41:25;11.00;89.00
41922;DHT22;27609;51.002;5.354;2024-01-16T13:43:53;10.60;89.70
41922;DHT22;27609;51.002;5.354;2024-01-16T13:46:18;10.60;89.50
41922;DHT22;27609;51.002;5.354;2024-01-16T13:48:44;9.20;90.40
41922;DHT22;27609;51.002;5.354;2024-01-16T13:51:11;8.50;91.90
41922;DHT22;27609;51.002;5.354;2024-01-16T13:53:36;8.70;91.80
41922;DHT22;27609;51.002;5.354;2024-01-16T13:56:02;8.80;91.80
41922;DHT22;27609;51.002;5.354;2024-01-16T13:58:28;9.00;92.20
41922;DHT22;27609;51.002;5.354;2024-01-16T14:00:54;8.80;92.10
41922;DHT22;27609;51.002;5.354;2024-01-16T14:03:20;9.00;91.20
41922;DHT22;27609;51.002;5.354;2024-01-16T14:05:46;8.60;92.10
41922;DHT22;27609;51.002;5.354;2024-01-16T14:08:12;8.90;91.70
41922;DHT22;27609;51.002;5.354;2024-01-16T14:10:38;8.70;92.70
41922;DHT22;27609;51.002;5.354;2024-01-16T14:13:04;8.40;93.10
41922;DHT22;27609;51.002;5.354;2024-01-16T14:15:30;8.70;93.70
41922;DHT22;27609;51.002;5.354;2024-01-16T14:17:56;8.90;92.80
41922;DHT22;27609;51.002;5.354;2024-01-16T14:20:24;8.20;92.80
41922;DHT22;27609;51.002;5.354;2024-01-16T14:22:58;7.70;93.30
41922;DHT22;27609;51.002;5.354;2024-01-16T14:25:24;7.30;95.10
41922;DHT22;27609;51.002;5.354;2024-01-16T14:28:00;6.80;95.00
41922;DHT22;27609;51.002;5.354;2024-01-16T14:30:33;6.20;96.40
41922;DHT22;27609;51.002;5.354;2024-01-16T14:33:00;6.10;97.20
41922;DHT22;27609;51.002;5.354;2024-01-16T14:35:26;5.90;98.60
41922;DHT22;27609;51.002;5.354;2024-01-16T14:37:52;5.80;98.70
41922;DHT22;27609;51.002;5.354;2024-01-16T14:40:19;5.70;98.60
41922;DHT22;27609;51.002;5.354;2024-01-16T14:42:52;5.40;98.70
41922;DHT22;27609;51.002;5.354;2024-01-16T14:45:21;5.20;99.30
41922;DHT22;27609;51.002;5.354;2024-01-16T14:47:48;4.80;99.70
41922;DHT22;27609;51.002;5.354;2024-01-16T14:50:14;4.70;99.90
41922;DHT22;27609;51.002;5.354;2024-01-16T14:52:43;4.90;99.90
41922;DHT22;27609;51.002;5.354;2024-01-16T14:55:09;5.00;99.90
41922;DHT22;27609;51.002;5.354;2024-01-16T14:57:38;5.00;99.90
41922;DHT22;27609;51.002;5.354;2024-01-16T15:00:10;5.00;99.90
41922;DHT22;27609;51.002;5.354;2024-01-16T15:02:49;5.00;99.90
41922;DHT22;27609;51.002;5.354;2024-01-16T15:05:15;5.20;99.90
41922;DHT22;27609;51.002;5.354;2024-01-16T15:07:42;4.80;99.90
41922;DHT22;27609;51.002;5.354;2024-01-16T15:10:09;4.70;99.90
41922;DHT22;27609;51.002;5.354;2024-01-16T15:12:39;4.60;99.90
41922;DHT22;27609;51.002;5.354;2024-01-16T15:15:07;4.50;99.90
41922;DHT22;27609;51.002;5.354;2024-01-16T15:17:33;4.50;99.90
41922;DHT22;27609;51.002;5.354;2024-01-16T15:19:59;4.50;99.90
41922;DHT22;27609;51.002;5.354;2024-01-16T15:22:24;4.30;99.90
41922;DHT22;27609;51.002;5.354;2024-01-16T15:24:50;4.20;99.90
41922;DHT22;27609;51.002;5.354;2024-01-16T15:27:16;4.10;99.90
41922;DHT22;27609;51.002;5.354;2024-01-16T15:29:42;4.00;99.90
41922;DHT22;27609;51.002;5.354;2024-01-16T15:32:08;4.00;99.90
41922;DHT22;27609;51.002;5.354;2024-01-16T15:34:33;3.90;99.90
41922;DHT22;27609;51.002;5.354;2024-01-16T15:37:01;3.90;99.90
41922;DHT22;27609;51.002;5.354;2024-01-16T15:39:27;3.90;99.90
41922;DHT22;27609;51.002;5.354;2024-01-16T15:41:53;3.70;99.90
41922;DHT22;27609;51.002;5.354;2024-01-16T15:56:58;3.50;99.90
41922;DHT22;27609;51.002;5.354;2024-01-16T15:59:24;3.30;99.90
41922;DHT22;27609;51.002;5.354;2024-01-16T16:01:51;3.60;99.90